Time;durP1;ratioP1;P1;durP2;ratioP2;P2;SDS_P1;SDS_P2;PMS_P1;PMS_P2;Temp;Humidity;BMP_temperature;BMP_pressure;BME280_temperature;BME280_humidity;BME280_pressure;Samples;Min_cycle;Max_cycle;Signal;HPM_P1;HPM_P2
2024/01/25 00:00:20;;;;;;;;;;;32.00;99.80;;;;;;5005212;28;19971;-72
2024/01/25 00:02:46;;;;;;;;;;;31.90;99.70;;;;;;5013273;28;19921;-68
2024/01/25 00:05:13;;;;;;;;;;;32.10;99.50;;;;;;5014056;28;19948;-67
2024/01/25 00:07:50;;;;;;;;;;;32.20;99.40;;;;;;5020589;28;19928;-71
2024/01/25 00:10:19;;;;;;;;;;;32.40;99.10;;;;;;5023263;28;19916;-74
2024/01/25 00:12:46;;;;;;;;;;;32.50;99.20;;;;;;5025218;28;19915;-66
2024/01/25 00:15:12;;;;;;;;;;;32.50;98.80;;;;;;5026299;28;19920;-73
2024/01/25 00:17:39;;;;;;;;;;;32.60;98.80;;;;;;5023763;28;19920;-72
2024/01/25 00:20:06;;;;;;;;;;;32.60;98.20;;;;;;5027680;28;19909;-75
2024/01/25 00:22:33;;;;;;;;;;;32.60;98.10;;;;;;5023525;28;19920;-69
2024/01/25 00:24:59;;;;;;;;;;;32.60;97.80;;;;;;5024741;28;19963;-72
2024/01/25 00:27:26;;;;;;;;;;;32.60;98.00;;;;;;5023777;28;19921;-70
2024/01/25 00:29:53;;;;;;;;;;;32.60;97.70;;;;;;5022859;28;20285;-74
2024/01/25 00:32:19;;;;;;;;;;;32.70;97.80;;;;;;5021777;28;19952;-73
2024/01/25 00:34:46;;;;;;;;;;;32.70;97.20;;;;;;5028221;28;19909;-73
2024/01/25 00:37:13;;;;;;;;;;;32.80;97.00;;;;;;5029940;28;19959;-75
2024/01/25 00:39:40;;;;;;;;;;;32.90;96.90;;;;;;5030785;28;19975;-71
2024/01/25 00:42:07;;;;;;;;;;;33.00;96.50;;;;;;5030229;28;19921;-69
2024/01/25 00:44:33;;;;;;;;;;;33.10;96.20;;;;;;5030770;28;20051;-74
2024/01/25 00:47:00;;;;;;;;;;;33.20;95.80;;;;;;5030265;28;19916;-68
2024/01/25 00:49:27;;;;;;;;;;;33.20;95.90;;;;;;5014854;28;19963;-75
2024/01/25 00:51:58;;;;;;;;;;;33.20;96.90;;;;;;5032408;28;19923;-68
2024/01/25 00:54:25;;;;;;;;;;;33.20;97.70;;;;;;5028787;28;19920;-70
2024/01/25 00:57:02;;;;;;;;;;;33.00;98.60;;;;;;5116966;27;20296;-71
2024/01/25 00:59:29;;;;;;;;;;;32.80;99.00;;;;;;5109045;28;19912;-72
2024/01/25 01:01:59;;;;;;;;;;;32.50;99.30;;;;;;5109098;28;19912;-75
2024/01/25 01:04:26;;;;;;;;;;;32.20;99.60;;;;;;5105815;28;19965;-75
2024/01/25 01:06:53;;;;;;;;;;;32.00;99.90;;;;;;5105727;28;19942;-74
2024/01/25 01:09:20;;;;;;;;;;;31.90;99.90;;;;;;5107642;28;20359;-70
2024/01/25 01:11:47;;;;;;;;;;;31.80;99.90;;;;;;5105822;28;19932;-72
2024/01/25 01:14:13;;;;;;;;;;;31.70;99.90;;;;;;5107373;28;20443;-73
2024/01/25 01:16:40;;;;;;;;;;;31.70;99.90;;;;;;5110074;28;19927;-75
2024/01/25 01:19:07;;;;;;;;;;;31.50;99.90;;;;;;5107449;28;20276;-73
2024/01/25 01:21:34;;;;;;;;;;;31.50;99.90;;;;;;5107541;28;19963;-70
2024/01/25 01:24:01;;;;;;;;;;;31.40;99.90;;;;;;5108175;28;19908;-73
2024/01/25 01:26:28;;;;;;;;;;;31.40;99.90;;;;;;5107793;28;19908;-68
2024/01/25 01:28:54;;;;;;;;;;;31.40;99.90;;;;;;5108012;28;19916;-72
2024/01/25 01:31:21;;;;;;;;;;;31.50;99.90;;;;;;5116951;28;19912;-74
2024/01/25 01:33:48;;;;;;;;;;;31.50;99.90;;;;;;5106837;28;19923;-68
2024/01/25 01:36:14;;;;;;;;;;;31.60;99.90;;;;;;5109660;28;20423;-72
2024/01/25 01:38:41;;;;;;;;;;;31.60;99.90;;;;;;5108204;28;19950;-69
2024/01/25 01:41:10;;;;;;;;;;;31.70;99.90;;;;;;5108835;28;19915;-73
2024/01/25 01:43:36;;;;;;;;;;;31.50;99.90;;;;;;5109937;28;19912;-70
2024/01/25 01:46:06;;;;;;;;;;;31.30;99.90;;;;;;5110270;28;19919;-70
2024/01/25 01:48:32;;;;;;;;;;;31.20;99.90;;;;;;5107846;28;19908;-71
2024/01/25 01:50:59;;;;;;;;;;;31.20;99.90;;;;;;5108430;28;20364;-74
2024/01/25 01:53:26;;;;;;;;;;;31.10;99.90;;;;;;5109085;28;20006;-70
2024/01/25 01:55:53;;;;;;;;;;;31.20;99.90;;;;;;5109749;28;20391;-74
2024/01/25 01:58:21;;;;;;;;;;;31.10;99.90;;;;;;5108684;28;20352;-72
2024/01/25 02:00:49;;;;;;;;;;;31.00;99.90;;;;;;5116662;27;19912;-75
2024/01/25 02:03:16;;;;;;;;;;;30.90;99.90;;;;;;5128761;27;19980;-70
2024/01/25 02:05:42;;;;;;;;;;;30.80;99.90;;;;;;5129137;27;19946;-72
2024/01/25 02:08:09;;;;;;;;;;;30.70;99.90;;;;;;5117039;27;19951;-73
2024/01/25 02:10:36;;;;;;;;;;;30.60;99.90;;;;;;5116496;27;20454;-71
2024/01/25 02:13:02;;;;;;;;;;;30.50;99.90;;;;;;5111982;28;19911;-73
2024/01/25 02:15:29;;;;;;;;;;;30.50;99.90;;;;;;5108967;28;19930;-74
2024/01/25 02:17:56;;;;;;;;;;;30.50;99.90;;;;;;5111912;28;19918;-68
2024/01/25 02:20:23;;;;;;;;;;;30.50;99.90;;;;;;5114419;27;19911;-66
2024/01/25 02:22:49;;;;;;;;;;;30.60;99.90;;;;;;5110599;28;20574;-67
2024/01/25 02:25:16;;;;;;;;;;;30.50;99.90;;;;;;5112858;28;19908;-69
2024/01/25 02:27:42;;;;;;;;;;;30.20;99.90;;;;;;5111507;28;20369;-71
2024/01/25 02:30:09;;;;;;;;;;;30.00;99.90;;;;;;5107501;28;19964;-72
2024/01/25 02:32:36;;;;;;;;;;;29.90;99.90;;;;;;5104110;28;20001;-74
2024/01/25 02:35:03;;;;;;;;;;;29.80;99.90;;;;;;5101354;28;20010;-70
2024/01/25 02:37:29;;;;;;;;;;;29.80;99.90;;;;;;5108946;27;19916;-65
2024/01/25 02:39:56;;;;;;;;;;;29.80;99.90;;;;;;5113283;28;19908;-71
2024/01/25 02:42:23;;;;;;;;;;;29.80;99.90;;;;;;5112619;28;19908;-68
2024/01/25 02:44:49;;;;;;;;;;;29.80;99.90;;;;;;5112891;28;20272;-72
2024/01/25 02:47:16;;;;;;;;;;;29.80;99.90;;;;;;5113021;28;20336;-62
2024/01/25 02:49:43;;;;;;;;;;;29.60;99.90;;;;;;5113425;28;20044;-64
2024/01/25 02:52:09;;;;;;;;;;;29.60;99.90;;;;;;5113461;28;19954;-66
2024/01/25 02:54:39;;;;;;;;;;;29.50;99.90;;;;;;5112992;28;19912;-68
2024/01/25 02:57:06;;;;;;;;;;;29.50;99.90;;;;;;5112536;27;19912;-67
2024/01/25 02:59:32;;;;;;;;;;;29.60;99.90;;;;;;5113370;28;19952;-71
2024/01/25 03:01:59;;;;;;;;;;;29.60;99.90;;;;;;5113453;28;19922;-73
2024/01/25 03:04:26;;;;;;;;;;;29.60;99.90;;;;;;5108504;27;20265;-66
2024/01/25 03:06:52;;;;;;;;;;;29.70;99.90;;;;;;5092807;28;19908;-70
2024/01/25 03:09:21;;;;;;;;;;;29.70;99.90;;;;;;5114916;27;19912;-69
2024/01/25 03:11:47;;;;;;;;;;;29.70;99.90;;;;;;5112963;28;19907;-67
2024/01/25 03:14:14;;;;;;;;;;;29.70;99.90;;;;;;5110479;28;20017;-65
2024/01/25 03:16:40;;;;;;;;;;;29.70;99.90;;;;;;5111162;27;19996;-63
2024/01/25 03:19:07;;;;;;;;;;;29.60;99.90;;;;;;5111615;28;19908;-69
2024/01/25 03:21:34;;;;;;;;;;;29.50;99.90;;;;;;5113984;27;19911;-71
2024/01/25 03:24:00;;;;;;;;;;;29.30;99.90;;;;;;5095053;28;19908;-72
2024/01/25 03:26:28;;;;;;;;;;;29.30;99.90;;;;;;5112633;28;19919;-70
2024/01/25 03:28:54;;;;;;;;;;;29.30;99.90;;;;;;5113031;28;19922;-68
2024/01/25 03:31:21;;;;;;;;;;;29.50;99.90;;;;;;5118399;27;19998;-70
2024/01/25 03:33:48;;;;;;;;;;;29.70;99.90;;;;;;5120452;27;19969;-70
2024/01/25 03:36:17;;;;;;;;;;;30.00;99.90;;;;;;5112756;28;19916;-69
2024/01/25 03:38:44;;;;;;;;;;;30.30;99.90;;;;;;5113255;28;19912;-70
2024/01/25 03:41:11;;;;;;;;;;;30.30;99.90;;;;;;5132863;27;19916;-68
2024/01/25 03:43:37;;;;;;;;;;;30.20;99.90;;;;;;5134091;27;19908;-70
2024/01/25 03:46:04;;;;;;;;;;;30.10;99.90;;;;;;5111060;27;19930;-70
2024/01/25 03:48:31;;;;;;;;;;;30.10;99.90;;;;;;5108156;27;19915;-72
2024/01/25 03:50:57;;;;;;;;;;;29.90;99.90;;;;;;5113892;27;20395;-70
2024/01/25 03:53:24;;;;;;;;;;;29.90;99.90;;;;;;5112873;28;19907;-69
2024/01/25 03:55:50;;;;;;;;;;;29.80;99.90;;;;;;5103000;28;19920;-73
2024/01/25 03:58:21;;;;;;;;;;;29.80;99.90;;;;;;5097057;27;20360;-72
2024/01/25 04:00:47;;;;;;;;;;;29.70;99.90;;;;;;5092898;28;19915;-72
2024/01/25 04:03:14;;;;;;;;;;;29.70;99.90;;;;;;5109560;27;19934;-70
2024/01/25 04:05:40;;;;;;;;;;;29.70;99.90;;;;;;5107320;27;19913;-72
2024/01/25 04:08:07;;;;;;;;;;;29.70;99.90;;;;;;5108399;27;19919;-71
2024/01/25 04:10:34;;;;;;;;;;;29.60;99.90;;;;;;5091963;28;19946;-69
2024/01/25 04:13:01;;;;;;;;;;;29.50;99.90;;;;;;5091779;28;20393;-72
2024/01/25 04:15:28;;;;;;;;;;;29.50;99.90;;;;;;5097031;28;20045;-71
2024/01/25 04:17:56;;;;;;;;;;;29.60;99.90;;;;;;5109657;28;19923;-72
2024/01/25 04:20:22;;;;;;;;;;;29.70;99.90;;;;;;5111160;28;19919;-70
2024/01/25 04:22:49;;;;;;;;;;;29.70;99.90;;;;;;5111272;28;19908;-69
2024/01/25 04:25:16;;;;;;;;;;;29.80;99.90;;;;;;5106579;28;19908;-70
2024/01/25 04:27:42;;;;;;;;;;;30.10;99.90;;;;;;5093965;27;19961;-74
2024/01/25 04:30:10;;;;;;;;;;;30.30;99.90;;;;;;5133048;27;19990;-70
2024/01/25 04:32:37;;;;;;;;;;;30.40;99.90;;;;;;5120813;27;19915;-73
2024/01/25 04:35:05;;;;;;;;;;;30.80;99.90;;;;;;5109092;28;20010;-74
2024/01/25 04:37:32;;;;;;;;;;;31.70;99.90;;;;;;5098160;28;19908;-67
2024/01/25 04:39:58;;;;;;;;;;;33.40;98.00;;;;;;5083201;28;20334;-72
2024/01/25 04:42:25;;;;;;;;;;;35.50;95.70;;;;;;5111695;28;20298;-70
2024/01/25 04:44:52;;;;;;;;;;;36.30;93.80;;;;;;5110971;28;19908;-70
2024/01/25 04:47:19;;;;;;;;;;;36.10;93.40;;;;;;5097307;27;20003;-73
2024/01/25 04:49:45;;;;;;;;;;;35.60;93.50;;;;;;5113491;28;20006;-74
2024/01/25 04:52:12;;;;;;;;;;;35.10;94.20;;;;;;5112414;28;19969;-71
2024/01/25 04:54:39;;;;;;;;;;;34.40;94.70;;;;;;5111891;28;19920;-71
2024/01/25 04:57:06;;;;;;;;;;;33.70;95.20;;;;;;5111919;28;19918;-64
2024/01/25 04:59:33;;;;;;;;;;;33.00;96.70;;;;;;5112137;28;19999;-68
2024/01/25 05:02:00;;;;;;;;;;;32.50;96.80;;;;;;5112472;28;19947;-72
2024/01/25 05:04:28;;;;;;;;;;;32.00;97.90;;;;;;5107375;28;19908;-73
2024/01/25 05:06:55;;;;;;;;;;;31.50;98.00;;;;;;5093910;28;19908;-73
2024/01/25 05:09:22;;;;;;;;;;;31.10;98.60;;;;;;5132374;28;19998;-63
2024/01/25 05:11:49;;;;;;;;;;;30.60;99.20;;;;;;5116269;28;19915;-70
2024/01/25 05:14:15;;;;;;;;;;;30.30;99.80;;;;;;5111503;28;19914;-66
2024/01/25 05:16:42;;;;;;;;;;;30.20;99.90;;;;;;5115588;28;20287;-68
2024/01/25 05:19:09;;;;;;;;;;;29.80;99.90;;;;;;5094720;28;20403;-70
2024/01/25 05:21:35;;;;;;;;;;;29.60;99.90;;;;;;5097081;28;20364;-69
2024/01/25 05:24:02;;;;;;;;;;;29.30;99.90;;;;;;5120050;28;19916;-71
2024/01/25 05:26:29;;;;;;;;;;;29.20;99.90;;;;;;5111397;28;19911;-71
2024/01/25 05:28:55;;;;;;;;;;;29.10;99.90;;;;;;5112404;28;19908;-73
2024/01/25 05:31:22;;;;;;;;;;;29.00;99.90;;;;;;5112122;28;19908;-70
2024/01/25 05:33:48;;;;;;;;;;;28.80;99.90;;;;;;5111395;28;20379;-71
2024/01/25 05:36:15;;;;;;;;;;;28.70;99.90;;;;;;5098525;28;19916;-70
2024/01/25 05:38:42;;;;;;;;;;;28.60;99.90;;;;;;5107669;28;19908;-67
2024/01/25 05:41:08;;;;;;;;;;;28.50;99.90;;;;;;5111991;28;19961;-69
2024/01/25 05:43:35;;;;;;;;;;;28.40;99.90;;;;;;5115709;28;19908;-72
2024/01/25 05:46:01;;;;;;;;;;;28.40;99.90;;;;;;5110667;28;19943;-71
2024/01/25 05:48:28;;;;;;;;;;;28.40;99.90;;;;;;5115107;27;20368;-69
2024/01/25 05:50:54;;;;;;;;;;;28.50;99.90;;;;;;5115511;28;19912;-69
2024/01/25 05:53:21;;;;;;;;;;;28.50;99.90;;;;;;5115798;28;20257;-69
2024/01/25 05:55:48;;;;;;;;;;;28.50;99.90;;;;;;5105905;28;19949;-70
2024/01/25 05:58:15;;;;;;;;;;;28.50;99.90;;;;;;5120829;27;19970;-68
2024/01/25 06:00:42;;;;;;;;;;;28.60;99.90;;;;;;5135873;27;19986;-72
2024/01/25 06:03:09;;;;;;;;;;;28.50;99.90;;;;;;5131116;27;19919;-67
2024/01/25 06:05:36;;;;;;;;;;;28.40;99.90;;;;;;5101238;28;19956;-71
2024/01/25 06:08:02;;;;;;;;;;;28.40;99.90;;;;;;5115205;28;20271;-70
2024/01/25 06:10:29;;;;;;;;;;;28.50;99.90;;;;;;5115280;28;19919;-70
2024/01/25 06:12:56;;;;;;;;;;;28.70;99.90;;;;;;5115367;28;20287;-71
2024/01/25 06:15:22;;;;;;;;;;;28.90;99.90;;;;;;5109114;28;19916;-69
2024/01/25 06:17:49;;;;;;;;;;;29.10;99.90;;;;;;5099411;28;19966;-71
2024/01/25 06:20:16;;;;;;;;;;;29.30;99.90;;;;;;5131253;27;20464;-71
2024/01/25 06:22:42;;;;;;;;;;;29.50;99.90;;;;;;5114881;28;19908;-69
2024/01/25 06:25:09;;;;;;;;;;;29.60;99.90;;;;;;5112205;28;19962;-64
2024/01/25 06:27:35;;;;;;;;;;;29.80;99.90;;;;;;5114743;28;19912;-70
2024/01/25 06:30:02;;;;;;;;;;;29.80;99.90;;;;;;5114881;28;19961;-71
2024/01/25 06:32:29;;;;;;;;;;;29.80;99.90;;;;;;5115329;28;19961;-68
2024/01/25 06:34:55;;;;;;;;;;;29.90;99.90;;;;;;5114692;28;20446;-72
2024/01/25 06:37:22;;;;;;;;;;;29.90;99.90;;;;;;5114935;28;19907;-71
2024/01/25 06:39:49;;;;;;;;;;;29.80;99.90;;;;;;5131770;27;19924;-70
2024/01/25 06:42:15;;;;;;;;;;;29.80;99.90;;;;;;5119967;27;20325;-72
2024/01/25 06:44:42;;;;;;;;;;;29.90;99.90;;;;;;5114544;28;19918;-70
2024/01/25 06:47:08;;;;;;;;;;;29.80;99.90;;;;;;5111868;28;20290;-70
2024/01/25 06:49:35;;;;;;;;;;;29.80;99.90;;;;;;5114884;28;19958;-71
2024/01/25 06:52:02;;;;;;;;;;;29.80;99.90;;;;;;5114827;28;20366;-68
2024/01/25 06:54:29;;;;;;;;;;;29.70;99.90;;;;;;5114937;28;19908;-64
2024/01/25 06:56:56;;;;;;;;;;;29.60;99.90;;;;;;5114783;28;19926;-71
2024/01/25 06:59:23;;;;;;;;;;;29.40;99.90;;;;;;5128140;27;19915;-70
2024/01/25 07:01:50;;;;;;;;;;;29.20;99.90;;;;;;5134933;27;20099;-70
2024/01/25 07:04:17;;;;;;;;;;;28.90;99.90;;;;;;5135306;27;20456;-71
2024/01/25 07:06:43;;;;;;;;;;;28.80;99.90;;;;;;5135251;27;19908;-69
2024/01/25 07:09:10;;;;;;;;;;;28.60;99.90;;;;;;5135006;27;19908;-65
2024/01/25 07:11:37;;;;;;;;;;;28.40;99.90;;;;;;5135171;27;19908;-66
2024/01/25 07:14:04;;;;;;;;;;;28.30;99.90;;;;;;5135325;27;20302;-70
2024/01/25 07:16:30;;;;;;;;;;;28.20;99.90;;;;;;5122326;27;20007;-65
2024/01/25 07:18:57;;;;;;;;;;;28.10;99.90;;;;;;5114198;27;19912;-65
2024/01/25 07:21:23;;;;;;;;;;;28.00;99.90;;;;;;5114469;28;19956;-64
2024/01/25 07:23:50;;;;;;;;;;;28.00;99.90;;;;;;5114008;28;19994;-72
2024/01/25 07:26:18;;;;;;;;;;;27.90;99.90;;;;;;5124306;27;20010;-72
2024/01/25 07:28:46;;;;;;;;;;;27.90;99.90;;;;;;5134258;27;19903;-73
2024/01/25 07:31:12;;;;;;;;;;;27.90;99.90;;;;;;5134503;27;20382;-72
2024/01/25 07:33:39;;;;;;;;;;;27.90;99.90;;;;;;5132760;27;19907;-70
2024/01/25 07:36:05;;;;;;;;;;;27.90;99.90;;;;;;5113907;28;19923;-70
2024/01/25 07:38:32;;;;;;;;;;;27.90;99.90;;;;;;5113898;28;20003;-67
2024/01/25 07:40:59;;;;;;;;;;;27.90;99.90;;;;;;5114022;28;19908;-71
2024/01/25 07:43:25;;;;;;;;;;;27.80;99.90;;;;;;5113692;28;19930;-70
2024/01/25 07:45:52;;;;;;;;;;;27.80;99.90;;;;;;5113653;28;19912;-70
2024/01/25 07:48:18;;;;;;;;;;;27.80;99.90;;;;;;5113720;28;20276;-69
2024/01/25 07:50:45;;;;;;;;;;;27.80;99.90;;;;;;5122278;27;20280;-72
2024/01/25 07:53:14;;;;;;;;;;;27.80;99.90;;;;;;5134742;27;20372;-73
2024/01/25 07:55:40;;;;;;;;;;;27.90;99.90;;;;;;5127416;27;20376;-72
2024/01/25 07:58:07;;;;;;;;;;;27.80;99.90;;;;;;5113852;28;19907;-73
2024/01/25 08:00:34;;;;;;;;;;;27.80;99.90;;;;;;5114093;28;20440;-73
2024/01/25 08:03:00;;;;;;;;;;;27.80;99.90;;;;;;5113486;28;19907;-70
2024/01/25 08:05:27;;;;;;;;;;;27.70;99.90;;;;;;5112878;28;19907;-74
2024/01/25 08:07:54;;;;;;;;;;;27.70;99.90;;;;;;5124205;27;19915;-63
2024/01/25 08:10:20;;;;;;;;;;;27.70;99.90;;;;;;5134280;27;19960;-69
2024/01/25 08:12:47;;;;;;;;;;;27.70;99.90;;;;;;5133787;27;19969;-73
2024/01/25 08:15:14;;;;;;;;;;;27.60;99.90;;;;;;5128194;27;19916;-74
2024/01/25 08:17:42;;;;;;;;;;;27.60;99.90;;;;;;5112847;28;19915;-71
2024/01/25 08:20:10;;;;;;;;;;;27.70;99.90;;;;;;5094605;28;19912;-72
2024/01/25 08:22:37;;;;;;;;;;;27.80;99.90;;;;;;5112653;28;19912;-70
2024/01/25 08:25:05;;;;;;;;;;;27.80;99.90;;;;;;5112844;28;19915;-74
2024/01/25 08:27:31;;;;;;;;;;;27.80;99.90;;;;;;5121428;27;19915;-71
2024/01/25 08:29:58;;;;;;;;;;;27.80;99.90;;;;;;5133774;27;19914;-74
2024/01/25 08:32:25;;;;;;;;;;;27.80;99.90;;;;;;5133827;27;19914;-70
2024/01/25 08:34:51;;;;;;;;;;;27.80;99.90;;;;;;5129430;27;20378;-68
2024/01/25 08:37:18;;;;;;;;;;;27.80;99.90;;;;;;5113338;27;19919;-66
2024/01/25 08:39:49;;;;;;;;;;;27.70;99.90;;;;;;5113333;28;19938;-70
2024/01/25 08:42:18;;;;;;;;;;;27.70;99.90;;;;;;5113203;28;19912;-71
2024/01/25 08:44:49;;;;;;;;;;;27.70;99.90;;;;;;5112952;28;19951;-72
2024/01/25 08:47:16;;;;;;;;;;;27.70;99.90;;;;;;5111961;28;20276;-70
2024/01/25 08:49:42;;;;;;;;;;;27.70;99.90;;;;;;5112877;28;20292;-70
2024/01/25 08:52:09;;;;;;;;;;;27.60;99.90;;;;;;5113037;28;19965;-71
2024/01/25 08:54:37;;;;;;;;;;;27.60;99.90;;;;;;5112626;28;19956;-72
2024/01/25 08:57:06;;;;;;;;;;;27.60;99.90;;;;;;5112547;28;20220;-70
2024/01/25 08:59:37;;;;;;;;;;;27.50;99.90;;;;;;5109893;28;19920;-67
2024/01/25 09:02:05;;;;;;;;;;;27.50;99.90;;;;;;5112771;28;19914;-69
2024/01/25 09:04:32;;;;;;;;;;;27.60;99.90;;;;;;5127314;28;20430;-70
2024/01/25 09:06:59;;;;;;;;;;;27.50;99.90;;;;;;5133050;28;19907;-66
2024/01/25 09:09:26;;;;;;;;;;;27.40;99.90;;;;;;5117504;28;19981;-70
2024/01/25 09:11:53;;;;;;;;;;;27.40;99.90;;;;;;5114889;28;19912;-69
2024/01/25 09:14:21;;;;;;;;;;;27.40;99.90;;;;;;5131860;28;19926;-63
2024/01/25 09:16:48;;;;;;;;;;;27.30;99.90;;;;;;5133829;27;19977;-61
2024/01/25 09:19:15;;;;;;;;;;;27.30;99.90;;;;;;5137261;27;19907;-69
2024/01/25 09:21:41;;;;;;;;;;;27.30;99.90;;;;;;5137389;27;19915;-65
2024/01/25 09:24:08;;;;;;;;;;;27.30;99.90;;;;;;5137240;27;19952;-71
2024/01/25 09:26:35;;;;;;;;;;;27.30;99.90;;;;;;5133689;27;20002;-71
2024/01/25 09:29:01;;;;;;;;;;;27.30;99.90;;;;;;5121050;27;19972;-72
2024/01/25 09:31:28;;;;;;;;;;;27.20;99.90;;;;;;5137275;27;19912;-70
2024/01/25 09:33:55;;;;;;;;;;;27.20;99.90;;;;;;5135469;27;19911;-67
2024/01/25 09:36:21;;;;;;;;;;;27.20;99.90;;;;;;5136535;27;20418;-69
2024/01/25 09:38:48;;;;;;;;;;;27.20;99.90;;;;;;5136658;27;19915;-70
2024/01/25 09:41:15;;;;;;;;;;;27.20;99.90;;;;;;5135035;27;19908;-66
2024/01/25 09:43:42;;;;;;;;;;;27.20;99.90;;;;;;5132848;27;19951;-65
2024/01/25 09:46:12;;;;;;;;;;;27.20;99.90;;;;;;5136212;27;19911;-71
2024/01/25 09:48:40;;;;;;;;;;;27.10;99.90;;;;;;5136159;27;19912;-70
2024/01/25 09:51:06;;;;;;;;;;;27.10;99.90;;;;;;5136925;27;19988;-71
2024/01/25 09:53:33;;;;;;;;;;;27.10;99.90;;;;;;5136898;27;19908;-69
2024/01/25 09:56:07;;;;;;;;;;;27.10;99.90;;;;;;5135700;27;19954;-66
2024/01/25 09:58:41;;;;;;;;;;;27.00;99.90;;;;;;5106507;27;19912;-71
2024/01/25 10:01:12;;;;;;;;;;;27.00;99.90;;;;;;5094765;28;20359;-70
2024/01/25 10:03:42;;;;;;;;;;;27.00;99.90;;;;;;5092762;28;19908;-69
2024/01/25 10:06:09;;;;;;;;;;;27.00;99.90;;;;;;5093826;28;19908;-69
2024/01/25 10:08:35;;;;;;;;;;;27.00;99.90;;;;;;5094180;28;19908;-66
2024/01/25 10:11:02;;;;;;;;;;;26.90;99.90;;;;;;5094178;28;19922;-69
2024/01/25 10:13:29;;;;;;;;;;;26.90;99.90;;;;;;5094935;28;19908;-70
2024/01/25 10:15:56;;;;;;;;;;;26.90;99.90;;;;;;5094916;28;20018;-68
2024/01/25 10:18:23;;;;;;;;;;;26.90;99.90;;;;;;5095509;28;19959;-69
2024/01/25 10:20:50;;;;;;;;;;;26.80;99.90;;;;;;5108744;27;19943;-65
2024/01/25 10:23:16;;;;;;;;;;;26.80;99.90;;;;;;5135741;27;19935;-69
2024/01/25 10:25:43;;;;;;;;;;;26.80;99.90;;;;;;5136201;27;19908;-66
2024/01/25 10:28:10;;;;;;;;;;;26.80;99.90;;;;;;5135307;27;20352;-68
2024/01/25 10:30:37;;;;;;;;;;;26.70;99.90;;;;;;5135735;27;19962;-69
2024/01/25 10:33:04;;;;;;;;;;;26.80;99.90;;;;;;5135894;27;19911;-70
2024/01/25 10:35:34;;;;;;;;;;;26.80;99.90;;;;;;5136046;27;19918;-68
2024/01/25 10:38:02;;;;;;;;;;;26.80;99.90;;;;;;5116135;27;20384;-70
2024/01/25 10:40:29;;;;;;;;;;;26.80;99.90;;;;;;5115584;28;19908;-70
2024/01/25 10:42:56;;;;;;;;;;;26.80;99.90;;;;;;5115226;28;19912;-67
2024/01/25 10:45:22;;;;;;;;;;;26.80;99.90;;;;;;5115449;28;20412;-69
2024/01/25 10:47:49;;;;;;;;;;;26.80;99.90;;;;;;5115098;28;19971;-71
2024/01/25 10:50:16;;;;;;;;;;;26.80;99.90;;;;;;5114771;27;19933;-67
2024/01/25 10:52:43;;;;;;;;;;;26.90;99.90;;;;;;5123778;27;19912;-70
2024/01/25 10:55:11;;;;;;;;;;;26.80;99.90;;;;;;5114379;28;19920;-71
2024/01/25 10:57:38;;;;;;;;;;;26.80;99.90;;;;;;5114845;28;19912;-68
2024/01/25 11:00:10;;;;;;;;;;;26.70;99.90;;;;;;5114847;28;19914;-70
2024/01/25 11:02:36;;;;;;;;;;;26.60;99.90;;;;;;5114431;28;19907;-68
2024/01/25 11:05:06;;;;;;;;;;;26.60;99.90;;;;;;5114140;28;19919;-70
2024/01/25 11:07:47;;;;;;;;;;;26.60;99.90;;;;;;5114569;28;19999;-70
2024/01/25 11:10:17;;;;;;;;;;;26.60;99.90;;;;;;5114557;28;20316;-67
2024/01/25 11:12:51;;;;;;;;;;;26.60;99.90;;;;;;5114506;28;19908;-68
2024/01/25 11:15:22;;;;;;;;;;;26.60;99.90;;;;;;5111690;28;19915;-70
2024/01/25 11:17:53;;;;;;;;;;;26.60;99.90;;;;;;5110780;28;19915;-71
2024/01/25 11:20:27;;;;;;;;;;;26.60;99.90;;;;;;5095402;28;19988;-68
2024/01/25 11:23:04;;;;;;;;;;;26.60;99.90;;;;;;5110665;28;19981;-69
2024/01/25 11:25:31;;;;;;;;;;;26.60;99.90;;;;;;5113486;28;20348;-69
2024/01/25 11:27:59;;;;;;;;;;;26.70;99.90;;;;;;5113748;27;19911;-69
2024/01/25 11:30:26;;;;;;;;;;;26.60;99.90;;;;;;5117614;27;19912;-68
2024/01/25 11:32:53;;;;;;;;;;;26.70;99.90;;;;;;5118349;27;20450;-66
2024/01/25 11:35:20;;;;;;;;;;;26.70;99.90;;;;;;5127291;27;19919;-69
2024/01/25 11:37:49;;;;;;;;;;;26.70;99.90;;;;;;5113550;28;19918;-68
2024/01/25 11:40:16;;;;;;;;;;;26.80;99.90;;;;;;5112379;28;19912;-71
2024/01/25 11:42:43;;;;;;;;;;;26.90;99.90;;;;;;5112480;28;19998;-69
2024/01/25 11:45:14;;;;;;;;;;;26.90;99.90;;;;;;5112168;28;20416;-67
2024/01/25 11:47:41;;;;;;;;;;;26.90;99.90;;;;;;5109246;28;20564;-69
2024/01/25 11:50:08;;;;;;;;;;;26.90;99.90;;;;;;5109880;28;19911;-71
2024/01/25 11:52:35;;;;;;;;;;;26.90;99.90;;;;;;5110310;28;19916;-68
2024/01/25 11:55:03;;;;;;;;;;;26.90;99.90;;;;;;5112034;28;20003;-68
2024/01/25 11:57:34;;;;;;;;;;;26.80;99.90;;;;;;5117581;27;19961;-67
2024/01/25 12:00:02;;;;;;;;;;;26.80;99.90;;;;;;5113619;28;19907;-69
2024/01/25 12:02:28;;;;;;;;;;;26.80;99.90;;;;;;5094949;28;19912;-69
2024/01/25 12:04:56;;;;;;;;;;;26.70;99.90;;;;;;5113255;28;19915;-71
2024/01/25 12:07:23;;;;;;;;;;;26.70;99.90;;;;;;5113308;28;20467;-69
2024/01/25 12:10:06;;;;;;;;;;;26.70;99.90;;;;;;5113133;28;19914;-69
2024/01/25 12:12:32;;;;;;;;;;;26.60;99.90;;;;;;5112780;28;20440;-68
2024/01/25 12:14:59;;;;;;;;;;;26.60;99.90;;;;;;5110606;28;20359;-69
2024/01/25 12:17:29;;;;;;;;;;;26.60;99.90;;;;;;5113349;28;20018;-69
2024/01/25 12:19:56;;;;;;;;;;;26.60;99.90;;;;;;5113429;28;19958;-74
2024/01/25 12:22:24;;;;;;;;;;;26.60;99.90;;;;;;5113277;28;19964;-73
2024/01/25 12:24:53;;;;;;;;;;;26.60;99.90;;;;;;5113222;28;19998;-73
2024/01/25 12:27:21;;;;;;;;;;;26.50;99.90;;;;;;5113600;28;20352;-73
2024/01/25 12:29:48;;;;;;;;;;;26.50;99.90;;;;;;5113148;28;19907;-73
2024/01/25 12:32:14;;;;;;;;;;;26.60;99.90;;;;;;5119268;27;19911;-74
2024/01/25 12:34:42;;;;;;;;;;;26.50;99.90;;;;;;5133974;27;19911;-73
2024/01/25 12:37:08;;;;;;;;;;;26.40;99.90;;;;;;5133771;27;19922;-71
2024/01/25 12:39:35;;;;;;;;;;;26.40;99.90;;;;;;5133670;27;19908;-74
2024/01/25 12:42:01;;;;;;;;;;;26.30;99.90;;;;;;5115031;27;19922;-70
2024/01/25 12:44:28;;;;;;;;;;;26.30;99.90;;;;;;5095323;28;19908;-73
2024/01/25 12:46:55;;;;;;;;;;;26.30;99.90;;;;;;5124590;27;19956;-73
2024/01/25 12:49:23;;;;;;;;;;;26.20;99.90;;;;;;5133713;27;19950;-72
2024/01/25 12:51:49;;;;;;;;;;;26.30;99.90;;;;;;5133285;27;19925;-72
2024/01/25 12:54:16;;;;;;;;;;;26.20;99.90;;;;;;5133691;27;20057;-69
2024/01/25 12:56:42;;;;;;;;;;;26.20;99.90;;;;;;5133624;27;19930;-74
2024/01/25 12:59:09;;;;;;;;;;;26.20;99.90;;;;;;5133307;28;19907;-72
2024/01/25 13:01:36;;;;;;;;;;;26.10;99.90;;;;;;5133517;28;19907;-72
2024/01/25 13:04:03;;;;;;;;;;;26.10;99.90;;;;;;5133896;28;19912;-73
2024/01/25 13:06:30;;;;;;;;;;;26.10;99.90;;;;;;5133489;28;20355;-72
2024/01/25 13:08:56;;;;;;;;;;;26.10;99.90;;;;;;5116613;28;20363;-73
2024/01/25 13:11:23;;;;;;;;;;;26.10;99.90;;;;;;5113007;28;19911;-73
2024/01/25 13:13:51;;;;;;;;;;;26.10;99.90;;;;;;5112365;28;19915;-74
2024/01/25 13:16:18;;;;;;;;;;;26.00;99.90;;;;;;5112693;28;19927;-73
2024/01/25 13:18:44;;;;;;;;;;;26.10;99.90;;;;;;5095352;28;19912;-72
2024/01/25 13:21:11;;;;;;;;;;;26.00;99.90;;;;;;5112880;28;19912;-73
2024/01/25 13:23:37;;;;;;;;;;;26.00;99.90;;;;;;5112995;28;19912;-74
2024/01/25 13:26:04;;;;;;;;;;;26.00;99.90;;;;;;5112881;28;19930;-72
2024/01/25 13:28:32;;;;;;;;;;;25.90;99.90;;;;;;5113023;28;19915;-73
2024/01/25 13:31:02;;;;;;;;;;;25.90;99.90;;;;;;5112797;28;19912;-72
2024/01/25 13:33:28;;;;;;;;;;;25.90;99.90;;;;;;5112919;28;19911;-73
2024/01/25 13:35:55;;;;;;;;;;;25.90;99.90;;;;;;5112781;28;20291;-67
2024/01/25 13:38:22;;;;;;;;;;;25.90;99.90;;;;;;5112688;28;19965;-72
2024/01/25 13:40:51;;;;;;;;;;;25.80;99.90;;;;;;5112957;28;19912;-72
2024/01/25 13:43:18;;;;;;;;;;;25.80;99.90;;;;;;5112799;28;19908;-70
2024/01/25 13:45:44;;;;;;;;;;;25.80;99.90;;;;;;5126773;28;19968;-74
2024/01/25 13:48:11;;;;;;;;;;;25.70;99.90;;;;;;5133002;28;20285;-70
2024/01/25 13:50:37;;;;;;;;;;;25.70;99.90;;;;;;5133060;28;19907;-74
2024/01/25 13:53:04;;;;;;;;;;;25.70;99.90;;;;;;5133133;28;19914;-67
2024/01/25 13:55:31;;;;;;;;;;;25.60;99.90;;;;;;5132891;28;19927;-71
2024/01/25 13:57:58;;;;;;;;;;;25.60;99.90;;;;;;5132620;28;19911;-73
2024/01/25 14:00:24;;;;;;;;;;;25.50;99.90;;;;;;5128543;28;19922;-71
2024/01/25 14:02:51;;;;;;;;;;;25.50;99.90;;;;;;5112930;28;19908;-69
2024/01/25 14:05:18;;;;;;;;;;;25.50;99.90;;;;;;5116167;28;19915;-73
2024/01/25 14:07:44;;;;;;;;;;;25.50;99.90;;;;;;5116174;28;20002;-70
2024/01/25 14:10:11;;;;;;;;;;;25.50;99.90;;;;;;5116150;28;19930;-72
2024/01/25 14:12:37;;;;;;;;;;;25.40;99.90;;;;;;5116198;28;19995;-73
2024/01/25 14:15:04;;;;;;;;;;;25.40;99.90;;;;;;5116154;28;19904;-74